Pekin Mall, Illinois
Current Conditions -  °F | °C
As of 4:10 AM on Friday 31 Oct 2014 (Local Time) from KPIA Reporting Station
Overcast Overcast  
Wind Chill: 44°   Ceiling: 2400
Heat Index: 48°   Visibility: 10mi
Dew Point: 39°   Wind: 9mph
Humidity: 71%   Direction: 330°NNW
Pressure: 30.1"   Gusts: 18mph
Location:  40.5452°N, 89.6011°W
Report Text: KPIA 310910Z 33008G16KT 10SM BKN024 BKN029 OVC039 09/04 A3010 RMK AO2 T00890039
Loading
Personal Weather Stations






























Interactive Weather Map
Tropical Storm Tracking
New forecast layout! Learn more

10-Day Weather Forecast

Advertisements
Track Severe Weather on mobile